WetterOnline ( https://www.wetteronline.at )

Wetter aktuell Goldberg

Aktuelles Wetter: Goldberg (58m)

6-stündlich | Neueste Meldungen
Ortszeit Temperatur Wetter
Mo, 14.10. 2:00 19.4° C bewölkt
So, 13.10. 20:00 18.4° C wolkig
So, 13.10. 14:00 19.2° C wolkig
So, 13.10. 8:00 10.4° C bewölkt
So, 13.10. 2:00 10.8° C bedeckt
Sa, 12.10. 20:00 12.1° C bewölkt
Sa, 12.10. 14:00 12.5° C Sprühregen
Sa, 12.10. 8:00 11.5° C Sprühregen
Ortszeit Temperatur Wetter
Mo, 14.10. 3:30 18.7° C bewölkt
Mo, 14.10. 3:20 18.7° C bewölkt
Mo, 14.10. 3:10 18.7° C bewölkt
Mo, 14.10. 3:00 18.9° C wolkig
Mo, 14.10. 2:50 18.9° C wolkig
Mo, 14.10. 2:40 18.8° C bewölkt
Mo, 14.10. 2:30 18.5° C bewölkt
Mo, 14.10. 2:00 19.4° C bewölkt
Ortszeit Relative Feuchte Sichtweite
Mo, 14.10. 2:00 71% 35 km
So, 13.10. 20:00 85% 15 km
So, 13.10. 14:00 76% 30 km
So, 13.10. 8:00 98% 12 km
So, 13.10. 2:00 96% 17 km
Sa, 12.10. 20:00 90% 45 km
Sa, 12.10. 14:00 94% 18 km
Sa, 12.10. 8:00 92% 14 km
Ortszeit Relative Feuchte Sichtweite
Mo, 14.10. 3:30 72% 45 km
Mo, 14.10. 3:20 72% -
Mo, 14.10. 3:10 72% -
Mo, 14.10. 3:00 71% 40 km
Mo, 14.10. 2:50 71% -
Mo, 14.10. 2:40 72% -
Mo, 14.10. 2:30 75% 30 km
Mo, 14.10. 2:00 71% 35 km
Ortszeit Niederschlagsmenge Niederschlagsart
Mo, 14.10. 2:00 0.1 l/m2 in 6 Std. Regen
So, 13.10. 20:00 2 l/m2 in 12 Std. Regen
So, 13.10. 14:00 0.0 l/m2 in 6 Std. -
So, 13.10. 8:00 0.7 l/m2 in 12 Std. -
So, 13.10. 2:00 0.7 l/m2 in 6 Std. Regen
Sa, 12.10. 20:00 2 l/m2 in 12 Std. Regen
Sa, 12.10. 14:00 2 l/m2 in 6 Std. Regen
Sa, 12.10. 8:00 2 l/m2 in 12 Std. Regen
Ortszeit Niederschlagsmenge Niederschlagsart
Mo, 14.10. 3:30 0.0 l/m2 in 1 Std. -
Mo, 14.10. 3:20 keine Meldung -
Mo, 14.10. 3:10 keine Meldung -
Mo, 14.10. 3:00 0.0 l/m2 in 1 Std. -
Mo, 14.10. 2:50 keine Meldung -
Mo, 14.10. 2:40 keine Meldung -
Mo, 14.10. 2:30 0.0 l/m2 in 1 Std. -
Mo, 14.10. 2:00 0.1 l/m2 in 1 Std. Regen
Ortszeit Stärke Spitze Richtung
km/h Bft. km/h Grad Sektor
Mo, 14.10. 2:00 22 4 47 240° SW
So, 13.10. 20:00 15 3 28 170° S
So, 13.10. 14:00 14 3 29 190° S
So, 13.10. 8:00 4 1 7 100° O
So, 13.10. 2:00 4 1 18 80° O
Sa, 12.10. 20:00 9 2 33 220° SW
Sa, 12.10. 14:00 15 3 24 240° SW
Sa, 12.10. 8:00 15 3 43 310° NW
Ortszeit Stärke Spitze Richtung
km/h Bft. km/h Grad Sektor
Mo, 14.10. 3:30 25 4 36 240° SW
Mo, 14.10. 3:20 25 4 - 240° SW
Mo, 14.10. 3:10 22 4 - 230° SW
Mo, 14.10. 3:00 30 5 44 240° SW
Mo, 14.10. 2:50 30 5 - 240° SW
Mo, 14.10. 2:40 24 4 - 230° SW
Mo, 14.10. 2:30 17 3 30 240° SW
Mo, 14.10. 2:00 22 4 47 240° SW
Ortszeit Untergrenze Bedeckung Gattung
total tief tief mittel hoch
Mo, 14.10. 2:00 1200 m 7/8 7/8 - - -
So, 13.10. 20:00 3000 m 6/8 6/8 - - -
So, 13.10. 14:00 630 m 8/8 3/8 - - -
So, 13.10. 8:00 90 m 7/8 7/8 - - -
So, 13.10. 2:00 630 m 8/8 8/8 - - -
Sa, 12.10. 20:00 960 m 7/8 7/8 - - -
Sa, 12.10. 14:00 210 m 8/8 8/8 - - -
Sa, 12.10. 8:00 240 m 7/8 7/8 - - -
Ortszeit Bedeckungsgrad in Achtel und Wolkenuntergrenze
Mo, 14.10. 3:30 6(2700m) 8(7500m) 8(9000m)
Mo, 14.10. 3:20 6(2700m) 8(7500m) 8(9000m)
Mo, 14.10. 3:10 5(2700m) 8(4500m) 8(7200m)
Mo, 14.10. 3:00 2(2400m) 7(4500m) 8(9000m)
Mo, 14.10. 2:50 2(2400m) 7(4500m) 8(9000m)
Mo, 14.10. 2:40 4(3600m) 7(4800m) 8(9000m)
Mo, 14.10. 2:30 7(3300m) 7(4200m) 7(7200m)
Mo, 14.10. 2:00 2(1200m) 3(1500m) 7(1800m)
Ortszeit Luftdruck NN (hPa) Tendenz (hPa in 3 Std.)
Mo, 14.10. 2:00 1009 + 1,0
So, 13.10. 20:00 1008 - 1,8
So, 13.10. 14:00 1011 - 0,3
So, 13.10. 8:00 1011 - 0,8
So, 13.10. 2:00 1012 + 0,6
Sa, 12.10. 20:00 1011 + 0,6
Sa, 12.10. 14:00 1009 + 1,3
Sa, 12.10. 8:00 1005 + 0,8
Ortszeit Luftdruck NN (hPa) Tendenz (hPa in 3 Std.)
Mo, 14.10. 3:30 1009 + 1,4
Mo, 14.10. 3:20 1009 keine Meldung
Mo, 14.10. 3:10 1009 keine Meldung
Mo, 14.10. 3:00 1009 + 1,1
Mo, 14.10. 2:50 1009 keine Meldung
Mo, 14.10. 2:40 1009 keine Meldung
Mo, 14.10. 2:30 1009 + 0,9
Mo, 14.10. 2:00 1009 + 1,0
Ortszeit Schneehöhe (cm)
Mo, 14.10. 2:00 0
So, 13.10. 20:00 0
So, 13.10. 14:00 0
So, 13.10. 8:00 0
So, 13.10. 2:00 0
Sa, 12.10. 20:00 0
Sa, 12.10. 14:00 0
Sa, 12.10. 8:00 0
Ortszeit Schneehöhe (cm)
Mo, 14.10. 3:30 0
Mo, 14.10. 3:20 0
Mo, 14.10. 3:10 0
Mo, 14.10. 3:00 0
Mo, 14.10. 2:50 0
Mo, 14.10. 2:40 0
Mo, 14.10. 2:30 0
Mo, 14.10. 2:00 0
Link zu dieser Seite / Seite empfehlen

Das Wetter in ...